Time;durP1;ratioP1;P1;durP2;ratioP2;P2;SDS_P1;SDS_P2;PMS_P1;PMS_P2;Temp;Humidity;BMP_temperature;BMP_pressure;BME280_temperature;BME280_humidity;BME280_pressure;Samples;Min_cycle;Max_cycle;Signal;HPM_P1;HPM_P2
2022/12/05 00:00:15;;;;;;;50.47;29.20;;;3.70;99.90;;;;;;4975027;28;20023;-45
2022/12/05 00:02:41;;;;;;;51.22;28.02;;;3.70;99.90;;;;;;4985646;23;20511;-53
2022/12/05 00:05:06;;;;;;;29.08;18.30;;;3.70;99.90;;;;;;4973725;28;20051;-50
2022/12/05 00:07:32;;;;;;;30.77;17.73;;;3.60;99.90;;;;;;4974057;28;20376;-53
2022/12/05 00:09:58;;;;;;;30.30;18.35;;;3.60;99.90;;;;;;4973724;28;20030;-54
2022/12/05 00:12:23;;;;;;;29.83;17.73;;;3.50;99.90;;;;;;4973514;28;20439;-49
2022/12/05 00:14:49;;;;;;;31.10;18.67;;;3.50;99.90;;;;;;4973488;28;20069;-54
2022/12/05 00:17:14;;;;;;;32.35;18.08;;;3.50;99.90;;;;;;4976183;28;20042;-49
2022/12/05 00:19:40;;;;;;;31.90;17.95;;;3.40;99.90;;;;;;4972608;28;20125;-49
2022/12/05 00:22:05;;;;;;;32.75;17.85;;;3.40;99.90;;;;;;4972651;28;20057;-54
2022/12/05 00:24:31;;;;;;;29.67;17.88;;;3.40;99.90;;;;;;4973204;28;20027;-51
2022/12/05 00:26:56;;;;;;;31.17;18.27;;;3.40;99.90;;;;;;4988311;28;20089;-48
2022/12/05 00:29:22;;;;;;;30.00;17.20;;;3.40;99.90;;;;;;4973340;28;20495;-51
2022/12/05 00:31:47;;;;;;;32.22;18.83;;;3.40;99.90;;;;;;4987890;28;20121;-51
2022/12/05 00:34:13;;;;;;;31.83;20.20;;;3.40;99.90;;;;;;4972750;28;20145;-51
2022/12/05 00:36:39;;;;;;;33.10;19.00;;;3.50;99.90;;;;;;4973336;28;20399;-51
2022/12/05 00:39:10;;;;;;;34.45;20.45;;;3.40;99.90;;;;;;4973071;28;20030;-49
2022/12/05 00:41:37;;;;;;;30.95;17.27;;;3.40;99.90;;;;;;4973223;28;20026;-49
2022/12/05 00:44:03;;;;;;;40.50;18.88;;;3.50;99.90;;;;;;4972551;28;20074;-52
2022/12/05 00:46:30;;;;;;;28.20;17.83;;;3.50;99.90;;;;;;4973006;28;20027;-50
2022/12/05 00:48:57;;;;;;;33.15;17.95;;;3.50;99.90;;;;;;4987940;28;20035;-53
2022/12/05 00:51:27;;;;;;;32.28;18.05;;;3.50;99.90;;;;;;4972540;28;20031;-56
2022/12/05 00:53:53;;;;;;;31.25;18.45;;;3.50;99.90;;;;;;4972322;28;20073;-52
2022/12/05 00:56:21;;;;;;;36.90;18.33;;;3.60;99.90;;;;;;4972982;28;20030;-52
2022/12/05 00:58:48;;;;;;;33.10;18.27;;;3.60;99.90;;;;;;4987636;28;20514;-52
2022/12/05 01:01:22;;;;;;;34.83;18.80;;;3.60;99.90;;;;;;4973045;28;20038;-52
2022/12/05 01:03:50;;;;;;;33.83;17.85;;;3.60;99.90;;;;;;4971935;28;20035;-51
2022/12/05 01:06:16;;;;;;;35.17;18.83;;;3.60;99.90;;;;;;4971301;28;20035;-54
2022/12/05 01:08:42;;;;;;;36.20;19.60;;;3.60;99.90;;;;;;4971492;28;20038;-53
2022/12/05 01:11:09;;;;;;;34.90;19.23;;;3.60;99.90;;;;;;4972660;28;20069;-52
2022/12/05 01:13:35;;;;;;;33.95;21.10;;;3.60;99.90;;;;;;4972403;28;20492;-50
2022/12/05 01:16:01;;;;;;;33.78;17.58;;;3.60;99.90;;;;;;4972817;28;20109;-53
2022/12/05 01:18:27;;;;;;;32.55;19.73;;;3.60;99.90;;;;;;4972370;28;20405;-55
2022/12/05 01:20:53;;;;;;;30.85;18.92;;;3.70;99.90;;;;;;4973089;28;20059;-49
2022/12/05 01:23:20;;;;;;;32.60;18.67;;;3.60;99.90;;;;;;4971910;28;20027;-50
2022/12/05 01:25:48;;;;;;;33.75;19.52;;;3.70;99.90;;;;;;4987568;28;20037;-51
2022/12/05 01:28:15;;;;;;;30.80;17.35;;;3.70;99.90;;;;;;4987454;28;20030;-53
2022/12/05 01:30:44;;;;;;;28.80;16.83;;;3.70;99.90;;;;;;4972533;28;20023;-55
2022/12/05 01:33:10;;;;;;;31.42;18.30;;;3.80;99.90;;;;;;4971758;28;20034;-55
2022/12/05 01:35:37;;;;;;;33.85;18.50;;;3.90;99.90;;;;;;4972816;28;20087;-54
2022/12/05 01:38:03;;;;;;;32.80;19.45;;;3.90;99.90;;;;;;4975639;28;20101;-55
2022/12/05 01:40:29;;;;;;;30.35;18.08;;;3.90;99.90;;;;;;4976286;28;20030;-54
2022/12/05 01:42:55;;;;;;;26.98;16.90;;;4.00;99.90;;;;;;4975457;28;20082;-52
2022/12/05 01:45:34;;;;;;;33.50;17.67;;;4.00;99.90;;;;;;4976336;28;20030;-52
2022/12/05 01:48:04;;;;;;;28.90;17.38;;;4.00;99.90;;;;;;4975946;28;20054;-51
2022/12/05 01:50:29;;;;;;;30.77;17.83;;;4.00;99.90;;;;;;4976249;28;20077;-51
2022/12/05 01:52:55;;;;;;;27.52;17.00;;;4.00;99.90;;;;;;4974333;28;20034;-55
2022/12/05 01:55:21;;;;;;;31.95;19.13;;;4.00;99.90;;;;;;4974842;28;20037;-49
2022/12/05 01:57:47;;;;;;;27.50;17.17;;;4.10;99.90;;;;;;4975749;28;20070;-54
2022/12/05 02:00:16;;;;;;;28.92;17.55;;;4.00;99.90;;;;;;4974844;28;20027;-50
2022/12/05 02:02:50;;;;;;;30.05;17.27;;;4.00;99.90;;;;;;4974899;28;20034;-52
2022/12/05 02:05:26;;;;;;;31.20;17.67;;;3.90;99.90;;;;;;4976043;28;20031;-50
2022/12/05 02:07:52;;;;;;;34.28;18.55;;;4.00;99.90;;;;;;4975564;28;20034;-51
2022/12/05 02:10:18;;;;;;;29.88;17.70;;;4.00;99.90;;;;;;4975884;28;20089;-51
2022/12/05 02:12:44;;;;;;;32.08;17.88;;;4.00;99.90;;;;;;4975174;28;20019;-52
2022/12/05 02:15:30;;;;;;;27.58;16.98;;;4.00;99.90;;;;;;4980755;28;20030;-52
2022/12/05 02:18:24;;;;;;;30.52;17.98;;;4.00;99.90;;;;;;4983712;28;20023;-51
2022/12/05 02:21:21;;;;;;;28.60;16.77;;;4.00;99.90;;;;;;4959903;28;20475;-51
2022/12/05 02:23:49;;;;;;;;;;;3.90;99.90;;;;;;4982134;28;20399;-51
2022/12/05 02:26:32;;;;;;;29.40;18.15;;;3.90;99.90;;;;;;4978991;28;19914;-49
2022/12/05 02:29:36;;;;;;;28.40;17.90;;;3.90;99.90;;;;;;4974232;28;20081;-51
2022/12/05 02:32:09;;;;;;;33.50;18.50;;;3.80;99.90;;;;;;4973163;28;20053;-55
2022/12/05 02:34:54;;;;;;;30.40;18.55;;;3.80;99.90;;;;;;4973986;28;20026;-52
2022/12/05 02:37:28;;;;;;;32.75;18.15;;;3.80;99.90;;;;;;4975216;28;20019;-55
2022/12/05 02:40:09;;;;;;;29.15;17.35;;;3.80;99.90;;;;;;4975067;28;20114;-53
2022/12/05 02:42:42;;;;;;;32.85;19.45;;;3.80;99.90;;;;;;4989227;28;20117;-55
2022/12/05 02:45:11;;;;;;;33.42;19.73;;;3.80;99.90;;;;;;4975121;28;20036;-56
2022/12/05 02:47:41;;;;;;;28.30;16.75;;;3.80;99.90;;;;;;4972589;28;20027;-56
2022/12/05 02:50:09;;;;;;;34.10;19.27;;;3.80;99.90;;;;;;4974939;28;20081;-55
2022/12/05 02:52:35;;;;;;;34.78;18.48;;;3.90;99.90;;;;;;4987140;28;20046;-52
2022/12/05 02:55:02;;;;;;;29.85;18.35;;;3.90;99.90;;;;;;4974850;28;20070;-51
2022/12/05 02:57:28;;;;;;;30.52;17.88;;;3.90;99.90;;;;;;4975327;28;20054;-51
2022/12/05 02:59:53;;;;;;;32.42;18.50;;;3.90;99.90;;;;;;4974830;28;20157;-51
2022/12/05 03:02:33;;;;;;;29.88;17.77;;;3.90;99.90;;;;;;4973923;28;20053;-54
2022/12/05 03:05:30;;;;;;;28.70;17.15;;;3.90;99.90;;;;;;4974686;28;20019;-51
2022/12/05 03:07:58;;;;;;;30.08;18.08;;;4.00;99.90;;;;;;4974848;28;20062;-54
2022/12/05 03:10:28;;;;;;;35.10;19.60;;;4.10;99.90;;;;;;4974653;28;20030;-51
2022/12/05 03:12:59;;;;;;;33.95;19.80;;;4.10;99.90;;;;;;4973800;28;20019;-53
2022/12/05 03:15:33;;;;;;;28.98;18.85;;;4.10;99.90;;;;;;4989526;28;20097;-53
2022/12/05 03:18:05;;;;;;;30.73;18.15;;;4.10;99.90;;;;;;4974219;28;20077;-56
2022/12/05 03:20:47;;;;;;;30.73;17.85;;;4.20;99.90;;;;;;4974527;28;20542;-53
2022/12/05 03:23:16;;;;;;;30.67;17.90;;;4.20;99.90;;;;;;4973547;28;20443;-49
2022/12/05 03:26:13;;;;;;;28.33;18.58;;;4.20;99.90;;;;;;4974447;28;20042;-50
2022/12/05 03:28:50;;;;;;;32.35;18.23;;;4.30;99.90;;;;;;4974246;28;20086;-50
2022/12/05 03:31:20;;;;;;;36.15;19.95;;;4.20;99.90;;;;;;4974489;28;20027;-48
2022/12/05 03:33:49;;;;;;;35.60;19.95;;;4.20;99.90;;;;;;4973343;28;20030;-49
2022/12/05 03:36:21;;;;;;;32.97;19.55;;;4.20;99.90;;;;;;4974013;28;20066;-52
2022/12/05 03:38:50;;;;;;;34.33;19.48;;;4.10;99.90;;;;;;4973958;28;20073;-54
2022/12/05 03:41:22;;;;;;;33.60;18.83;;;4.10;99.90;;;;;;4973952;28;20070;-50
2022/12/05 03:43:47;;;;;;;35.80;19.52;;;4.00;99.90;;;;;;4973190;28;20471;-51
2022/12/05 03:46:36;;;;;;;37.40;20.00;;;4.00;99.90;;;;;;4974041;28;20151;-53
2022/12/05 03:49:10;;;;;;;33.47;17.77;;;4.20;99.90;;;;;;4973765;28;20029;-53
2022/12/05 03:51:50;;;;;;;33.67;18.92;;;4.20;99.90;;;;;;4974194;28;20446;-55
2022/12/05 03:54:24;;;;;;;34.58;18.52;;;4.30;99.90;;;;;;4973630;28;20034;-49
2022/12/05 03:57:02;;;;;;;36.83;19.67;;;4.20;99.90;;;;;;4973754;28;20027;-51
2022/12/05 03:59:37;;;;;;;35.90;20.08;;;4.20;99.90;;;;;;4971829;28;20027;-49
2022/12/05 04:02:10;;;;;;;34.40;20.53;;;4.20;99.90;;;;;;4972714;28;20031;-53
2022/12/05 04:04:44;;;;;;;31.73;18.23;;;4.10;99.90;;;;;;4973639;28;20037;-53
2022/12/05 04:07:13;;;;;;;33.55;19.98;;;4.10;99.90;;;;;;4973629;28;20031;-50
2022/12/05 04:09:44;;;;;;;34.55;18.58;;;4.20;99.90;;;;;;4973545;28;20031;-54
2022/12/05 04:12:18;;;;;;;35.85;19.33;;;4.20;99.90;;;;;;4972881;28;20447;-49
2022/12/05 04:14:48;;;;;;;35.85;19.50;;;4.20;99.90;;;;;;4973787;28;20144;-50
2022/12/05 04:17:25;;;;;;;35.67;20.15;;;4.20;99.90;;;;;;4974101;28;20035;-47
2022/12/05 04:22:48;;;;;;;34.90;20.02;;;4.20;99.90;;;;;;4973543;28;20060;-52
2022/12/05 04:25:33;;;;;;;31.33;19.60;;;4.30;99.90;;;;;;4973458;28;20026;-53
2022/12/05 04:28:07;;;;;;;36.00;20.55;;;4.20;99.90;;;;;;4973291;28;20026;-51
2022/12/05 04:30:49;;;;;;;36.15;20.00;;;4.20;99.90;;;;;;4973256;28;20027;-52
2022/12/05 04:33:33;;;;;;;41.28;20.70;;;4.20;99.90;;;;;;4972343;28;20039;-55
2022/12/05 04:36:06;;;;;;;38.70;22.38;;;4.10;99.90;;;;;;4973520;28;20031;-51
2022/12/05 04:38:38;;;;;;;44.40;19.48;;;4.10;99.90;;;;;;4973247;28;20030;-53
2022/12/05 04:41:10;;;;;;;43.10;20.73;;;4.00;99.90;;;;;;4973120;28;20030;-53
2022/12/05 04:43:40;;;;;;;38.05;20.65;;;4.00;99.90;;;;;;4972264;28;20030;-49
2022/12/05 04:46:08;;;;;;;36.33;19.50;;;4.00;99.90;;;;;;4972860;28;20031;-50
2022/12/05 04:48:38;;;;;;;38.40;21.50;;;4.00;99.90;;;;;;4972978;28;20034;-51
2022/12/05 04:51:06;;;;;;;45.05;21.23;;;4.00;99.90;;;;;;4986552;28;20499;-58
2022/12/05 04:53:33;;;;;;;45.55;21.27;;;3.90;99.90;;;;;;4986945;28;20034;-49
2022/12/05 04:56:00;;;;;;;43.92;21.98;;;4.00;99.90;;;;;;4972777;28;20027;-51
2022/12/05 04:58:29;;;;;;;43.53;21.33;;;4.10;99.90;;;;;;4972700;28;20027;-55
2022/12/05 05:01:03;;;;;;;43.40;21.73;;;4.10;99.90;;;;;;4972756;28;20067;-53
2022/12/05 05:03:37;;;;;;;43.72;20.63;;;4.10;99.90;;;;;;4987068;28;20031;-60
2022/12/05 05:06:03;;;;;;;41.60;21.33;;;4.00;99.90;;;;;;4972454;28;20034;-51
2022/12/05 05:08:29;;;;;;;43.17;20.45;;;4.00;99.90;;;;;;4972647;28;20031;-51
2022/12/05 05:11:11;;;;;;;39.42;20.27;;;3.90;99.90;;;;;;4972684;28;20031;-52
2022/12/05 05:13:36;;;;;;;40.85;20.33;;;3.90;99.90;;;;;;4976103;28;20027;-51
2022/12/05 05:16:02;;;;;;;44.53;21.50;;;4.00;99.90;;;;;;4975392;28;20034;-53
2022/12/05 05:18:27;;;;;;;43.78;20.33;;;3.90;99.90;;;;;;4976621;28;20031;-52
2022/12/05 05:20:53;;;;;;;42.90;20.42;;;4.00;99.90;;;;;;4976220;28;20593;-53
2022/12/05 05:23:19;;;;;;;48.00;21.42;;;4.00;99.90;;;;;;4977424;28;20023;-51
2022/12/05 05:25:44;;;;;;;42.15;20.42;;;4.00;99.90;;;;;;4976604;28;20034;-54
2022/12/05 05:28:10;;;;;;;44.03;21.55;;;4.00;99.90;;;;;;4976556;28;20042;-51
2022/12/05 05:30:35;;;;;;;38.65;20.23;;;4.00;99.90;;;;;;4976404;28;20487;-51
2022/12/05 05:33:01;;;;;;;41.53;21.33;;;4.10;99.90;;;;;;4975549;28;20399;-55
2022/12/05 05:35:26;;;;;;;45.28;20.98;;;4.10;99.90;;;;;;4975121;28;20022;-53
2022/12/05 05:37:52;;;;;;;50.85;25.17;;;4.20;99.90;;;;;;4976199;28;20061;-50
2022/12/05 05:40:18;;;;;;;50.67;22.40;;;4.30;99.90;;;;;;4976204;28;20399;-51
2022/12/05 05:42:45;;;;;;;47.45;22.63;;;4.30;99.90;;;;;;4975482;28;20415;-52
2022/12/05 05:45:11;;;;;;;54.28;21.90;;;4.20;99.90;;;;;;4976121;28;20112;-53
2022/12/05 05:47:37;;;;;;;49.15;21.65;;;4.30;99.90;;;;;;4976176;28;20027;-55
2022/12/05 05:50:04;;;;;;;50.10;22.95;;;4.30;99.90;;;;;;4974912;28;20165;-51
2022/12/05 05:52:33;;;;;;;59.47;23.45;;;4.20;99.90;;;;;;4973501;28;20030;-54
2022/12/05 05:54:59;;;;;;;50.78;23.38;;;4.20;99.90;;;;;;4976098;28;20019;-49
2022/12/05 05:57:24;;;;;;;57.63;23.75;;;4.30;99.90;;;;;;4975821;28;20035;-49
2022/12/05 05:59:50;;;;;;;53.65;23.38;;;4.30;99.90;;;;;;4975921;28;20063;-55
2022/12/05 06:02:15;;;;;;;55.60;23.80;;;4.20;99.90;;;;;;5003659;23;20062;-42
2022/12/05 06:04:41;;;;;;;49.28;23.95;;;4.20;99.90;;;;;;4994240;28;20029;-46
2022/12/05 06:07:06;;;;;;;59.25;23.73;;;4.10;99.90;;;;;;4995519;28;20025;-47
2022/12/05 06:09:32;;;;;;;45.63;22.40;;;4.10;99.90;;;;;;4996302;28;20494;-43
2022/12/05 06:11:58;;;;;;;51.90;23.75;;;4.20;99.90;;;;;;4994777;28;20318;-47
2022/12/05 06:14:23;;;;;;;57.00;24.58;;;4.20;99.90;;;;;;4995454;28;20049;-52
2022/12/05 06:16:49;;;;;;;54.53;24.08;;;4.20;99.90;;;;;;4994985;28;20489;-51
2022/12/05 06:19:14;;;;;;;55.97;24.73;;;4.10;99.90;;;;;;4994948;28;20022;-50
2022/12/05 06:21:40;;;;;;;51.35;22.88;;;4.10;99.90;;;;;;4995085;28;20050;-52
2022/12/05 06:24:05;;;;;;;47.08;22.02;;;4.10;99.90;;;;;;5008919;28;20109;-52
2022/12/05 06:26:31;;;;;;;51.20;23.13;;;4.10;99.90;;;;;;4994687;28;20022;-50
2022/12/05 06:28:56;;;;;;;49.88;22.48;;;4.10;99.90;;;;;;4995948;28;20049;-43
2022/12/05 06:31:27;;;;;;;53.13;22.73;;;4.10;99.90;;;;;;4994464;28;20026;-50
2022/12/05 06:33:53;;;;;;;56.88;23.90;;;4.20;99.90;;;;;;4993948;28;20402;-49
2022/12/05 06:36:20;;;;;;;46.65;23.35;;;4.20;99.90;;;;;;4994762;28;20050;-51
2022/12/05 06:38:46;;;;;;;45.60;21.05;;;4.10;99.90;;;;;;4994507;28;20031;-45
2022/12/05 06:41:15;;;;;;;48.67;23.63;;;4.10;99.90;;;;;;5009539;28;20534;-44
2022/12/05 06:43:41;;;;;;;46.17;22.48;;;4.20;99.90;;;;;;4993734;28;20371;-48
2022/12/05 06:46:08;;;;;;;50.42;22.05;;;4.10;99.90;;;;;;4994394;28;20165;-43
2022/12/05 06:48:34;;;;;;;49.78;23.17;;;4.10;99.90;;;;;;4994520;28;20022;-42
2022/12/05 06:51:00;;;;;;;52.92;24.05;;;4.00;99.90;;;;;;4993730;28;20030;-47
2022/12/05 06:53:26;;;;;;;48.88;22.10;;;4.00;99.90;;;;;;4993927;28;20105;-51
2022/12/05 06:55:59;;;;;;;54.40;21.90;;;4.00;99.90;;;;;;4994159;28;20398;-50
2022/12/05 06:58:26;;;;;;;48.95;21.15;;;4.00;99.90;;;;;;4994225;28;20490;-49
2022/12/05 07:03:36;;;;;;;46.90;21.90;;;4.10;99.90;;;;;;4993667;28;20046;-47
2022/12/05 07:06:04;;;;;;;51.03;24.02;;;4.10;99.90;;;;;;4994214;28;20027;-47
2022/12/05 07:08:30;;;;;;;47.20;22.40;;;4.20;99.90;;;;;;4994708;28;20029;-48
2022/12/05 07:10:56;;;;;;;52.28;22.80;;;4.20;99.90;;;;;;5010883;28;20030;-50
2022/12/05 07:13:21;;;;;;;58.58;24.38;;;4.20;99.90;;;;;;4994290;28;20062;-50
2022/12/05 07:15:48;;;;;;;49.97;23.50;;;4.20;99.90;;;;;;4999640;28;20030;-52
2022/12/05 07:18:15;;;;;;;52.00;21.38;;;4.30;99.90;;;;;;5003706;28;20057;-63
2022/12/05 07:20:41;;;;;;;55.88;24.77;;;4.30;99.90;;;;;;5003755;28;20018;-50
2022/12/05 07:23:06;;;;;;;58.53;25.48;;;4.40;99.90;;;;;;5001004;28;20082;-48
2022/12/05 07:25:32;;;;;;;55.72;23.58;;;4.30;99.90;;;;;;4993943;28;20065;-48
2022/12/05 07:27:57;;;;;;;58.80;24.83;;;4.30;99.90;;;;;;4993615;28;20027;-50
2022/12/05 07:30:23;;;;;;;56.47;25.27;;;4.50;99.90;;;;;;4993804;28;20029;-52
2022/12/05 07:32:48;;;;;;;58.63;24.63;;;4.50;99.90;;;;;;4992708;28;20026;-47
2022/12/05 07:35:14;;;;;;;61.38;25.38;;;4.30;99.90;;;;;;4992915;28;20054;-46
2022/12/05 07:37:39;;;;;;;53.38;25.00;;;4.30;99.90;;;;;;4993485;28;20023;-49
2022/12/05 07:40:05;;;;;;;58.78;25.15;;;4.40;99.90;;;;;;4993714;28;20025;-48
2022/12/05 07:42:31;;;;;;;51.08;24.15;;;4.50;99.90;;;;;;4992570;28;20081;-45
2022/12/05 07:44:57;;;;;;;54.40;23.77;;;4.50;99.90;;;;;;4993579;28;20026;-47
2022/12/05 07:47:22;;;;;;;54.55;24.42;;;4.50;99.90;;;;;;4993270;28;20046;-50
2022/12/05 07:49:48;;;;;;;61.88;26.95;;;4.50;99.90;;;;;;4993230;28;20026;-48
2022/12/05 07:52:14;;;;;;;56.40;23.63;;;4.50;99.90;;;;;;5007970;28;20045;-52
2022/12/05 07:54:39;;;;;;;52.15;23.65;;;4.40;99.90;;;;;;4993787;28;20026;-42
2022/12/05 07:57:05;;;;;;;59.22;24.48;;;4.40;99.90;;;;;;4993337;28;20030;-50
2022/12/05 07:59:30;;;;;;;58.78;24.60;;;4.50;99.90;;;;;;4993264;28;20030;-50
2022/12/05 08:01:56;;;;;;;65.57;27.33;;;4.60;99.90;;;;;;4992271;28;20037;-52
2022/12/05 08:04:21;;;;;;;59.53;24.75;;;4.50;99.90;;;;;;4993553;28;20033;-43
2022/12/05 08:06:47;;;;;;;55.88;25.25;;;4.40;99.90;;;;;;4993021;28;20054;-49
2022/12/05 08:09:12;;;;;;;61.85;25.90;;;4.50;99.90;;;;;;4993090;28;20105;-49
2022/12/05 08:11:38;;;;;;;65.15;24.27;;;4.50;99.90;;;;;;4992973;28;20030;-50
2022/12/05 08:14:06;;;;;;;53.85;24.48;;;4.50;99.90;;;;;;4992184;28;20066;-50
2022/12/05 08:16:32;;;;;;;56.38;24.83;;;4.40;99.90;;;;;;5007679;28;20398;-44
2022/12/05 08:19:04;;;;;;;60.40;24.70;;;4.30;99.90;;;;;;4992721;28;20124;-47
2022/12/05 08:21:30;;;;;;;61.55;25.48;;;4.30;99.90;;;;;;4992744;28;20085;-49
2022/12/05 08:23:56;;;;;;;55.90;25.70;;;4.30;99.90;;;;;;4990629;28;20034;-50
2022/12/05 08:26:28;;;;;;;64.55;26.02;;;4.30;99.90;;;;;;4993209;28;20457;-46
2022/12/05 08:28:59;;;;;;;64.43;27.25;;;4.30;99.90;;;;;;4993749;28;20022;-46
2022/12/05 08:31:26;;;;;;;62.13;25.90;;;4.30;99.90;;;;;;4993583;28;20046;-44
2022/12/05 08:33:52;;;;;;;62.13;27.42;;;4.30;99.90;;;;;;4992776;28;20088;-45
2022/12/05 08:36:18;;;;;;;58.22;24.45;;;4.40;99.90;;;;;;4993344;28;20038;-49
2022/12/05 08:38:45;;;;;;;60.40;25.42;;;4.50;99.90;;;;;;4993278;28;20030;-50
2022/12/05 08:41:14;;;;;;;55.08;24.75;;;4.60;99.90;;;;;;4993337;28;20026;-43
2022/12/05 08:43:39;;;;;;;56.90;25.08;;;4.60;99.90;;;;;;4992488;28;20072;-46
2022/12/05 08:46:05;;;;;;;53.50;24.60;;;4.50;99.90;;;;;;4993270;28;20437;-48
2022/12/05 08:48:31;;;;;;;58.30;26.88;;;4.50;99.90;;;;;;4993090;28;20391;-46
2022/12/05 08:50:58;;;;;;;57.75;26.27;;;4.60;99.90;;;;;;4992997;28;20042;-51
2022/12/05 08:53:24;;;;;;;51.42;24.17;;;4.60;99.90;;;;;;4988498;28;20394;-51
2022/12/05 08:55:50;;;;;;;55.88;26.08;;;4.50;99.90;;;;;;4981172;28;20042;-45
2022/12/05 08:58:16;;;;;;;49.83;23.55;;;4.60;99.90;;;;;;4992463;28;20490;-43
2022/12/05 09:00:42;;;;;;;57.28;24.50;;;4.60;99.90;;;;;;5009564;28;20033;-49
2022/12/05 09:03:10;;;;;;;50.53;24.98;;;4.60;99.90;;;;;;4991953;28;20530;-46
2022/12/05 09:05:35;;;;;;;52.55;24.40;;;4.70;99.90;;;;;;4992771;28;20033;-49
2022/12/05 09:08:01;;;;;;;50.95;23.98;;;4.70;99.90;;;;;;4990417;28;20101;-44
2022/12/05 09:10:26;;;;;;;48.17;24.02;;;4.70;99.90;;;;;;4993184;28;20026;-43
2022/12/05 09:12:52;;;;;;;51.33;24.45;;;4.80;99.90;;;;;;4991748;28;20457;-44
2022/12/05 09:15:18;;;;;;;53.92;24.35;;;4.90;99.90;;;;;;4992414;28;20083;-46
2022/12/05 09:17:44;;;;;;;46.15;25.08;;;4.90;99.90;;;;;;4992396;28;20027;-51
2022/12/05 09:20:12;;;;;;;46.58;22.60;;;4.90;99.90;;;;;;4992445;28;20030;-48
2022/12/05 09:22:38;;;;;;;55.50;25.40;;;4.90;99.90;;;;;;4991440;28;20097;-50
2022/12/05 09:25:05;;;;;;;47.58;22.73;;;4.90;99.90;;;;;;4992287;28;20081;-46
2022/12/05 09:27:31;;;;;;;52.17;24.33;;;4.90;99.90;;;;;;4992178;28;20030;-46
2022/12/05 09:29:56;;;;;;;48.28;24.85;;;4.90;99.90;;;;;;4991853;28;20032;-47
2022/12/05 09:32:22;;;;;;;46.97;22.00;;;4.90;99.90;;;;;;4991620;28;20038;-53
2022/12/05 09:34:47;;;;;;;42.85;23.15;;;4.90;99.90;;;;;;4992342;28;20026;-50
2022/12/05 09:37:13;;;;;;;44.40;22.63;;;5.00;99.90;;;;;;4994862;28;20064;-51
2022/12/05 09:39:39;;;;;;;43.63;22.20;;;5.00;99.90;;;;;;4997112;28;20042;-53
2022/12/05 09:42:33;;;;;;;45.72;22.58;;;5.00;99.90;;;;;;4996969;28;20030;-50
2022/12/05 09:45:13;;;;;;;45.78;23.33;;;5.00;99.90;;;;;;4996859;28;20105;-53
2022/12/05 09:47:51;;;;;;;38.80;21.80;;;5.00;99.90;;;;;;4997608;28;20026;-47
2022/12/05 09:50:31;;;;;;;42.40;22.45;;;5.20;99.90;;;;;;4998018;28;20509;-46
2022/12/05 09:53:08;;;;;;;45.83;22.60;;;5.10;99.90;;;;;;4996755;28;20033;-52
2022/12/05 09:55:48;;;;;;;45.35;22.92;;;5.00;99.90;;;;;;5012302;28;20049;-49
2022/12/05 09:58:37;;;;;;;50.50;22.65;;;5.00;99.90;;;;;;4999193;28;20039;-49
2022/12/05 10:01:20;;;;;;;46.28;22.02;;;5.00;99.90;;;;;;4999840;28;20023;-46
2022/12/05 10:03:54;;;;;;;43.90;22.90;;;5.00;99.90;;;;;;4996954;28;20053;-46
2022/12/05 10:06:38;;;;;;;52.08;23.23;;;5.00;99.90;;;;;;4999366;28;20028;-49
2022/12/05 10:09:04;;;;;;;45.10;21.33;;;5.00;99.90;;;;;;4988129;28;20429;-47
2022/12/05 10:11:32;;;;;;;51.03;24.63;;;5.10;99.90;;;;;;4980514;28;20219;-50
2022/12/05 10:14:21;;;;;;;48.45;22.25;;;5.00;99.90;;;;;;4980166;28;20031;-44
2022/12/05 10:16:51;;;;;;;50.97;22.98;;;5.00;99.90;;;;;;4980491;28;20034;-46
2022/12/05 10:19:30;;;;;;;52.22;24.17;;;5.00;99.90;;;;;;5006378;28;20092;-44
2022/12/05 10:22:00;;;;;;;50.45;23.98;;;4.90;99.90;;;;;;5004626;28;20101;-48
2022/12/05 10:24:37;;;;;;;48.03;21.58;;;4.90;99.90;;;;;;5002943;28;20486;-47
2022/12/05 10:27:06;;;;;;;49.45;23.83;;;5.00;99.90;;;;;;4992546;28;20027;-49
2022/12/05 10:29:46;;;;;;;49.20;22.10;;;5.00;99.90;;;;;;5003751;28;20034;-44
2022/12/05 10:32:14;;;;;;;49.45;22.10;;;5.00;99.90;;;;;;4991128;28;20031;-44
2022/12/05 10:34:42;;;;;;;52.22;23.25;;;5.00;99.90;;;;;;4991331;28;20031;-47
2022/12/05 10:37:18;;;;;;;44.30;23.70;;;5.00;99.90;;;;;;5003808;28;20034;-47
2022/12/05 10:39:44;;;;;;;;;;;5.00;99.90;;;;;;4999288;28;20058;-46
2022/12/05 10:42:29;;;;;;;43.53;20.42;;;5.10;99.90;;;;;;4998593;28;19913;-50
2022/12/05 10:44:58;;;;;;;46.50;23.08;;;5.00;99.90;;;;;;5003583;28;20410;-45
2022/12/05 10:47:23;;;;;;;51.60;23.95;;;5.00;99.90;;;;;;5000887;28;20049;-50
2022/12/05 10:49:49;;;;;;;44.53;23.38;;;5.10;99.90;;;;;;5002141;28;20026;-48
2022/12/05 10:52:15;;;;;;;46.25;22.08;;;5.10;99.90;;;;;;5006030;28;20476;-42
2022/12/05 10:54:50;;;;;;;52.38;24.33;;;5.10;99.90;;;;;;5007978;28;20046;-43
2022/12/05 10:57:22;;;;;;;43.65;21.70;;;5.10;99.90;;;;;;5008091;28;20034;-49
2022/12/05 10:59:48;;;;;;;49.53;22.92;;;5.00;99.90;;;;;;5006950;28;20086;-42
2022/12/05 11:02:41;;;;;;;49.88;23.20;;;5.00;99.90;;;;;;5002896;28;21345;-47
2022/12/05 11:05:07;;;;;;;52.50;22.98;;;4.90;99.90;;;;;;5003118;28;20490;-46
2022/12/05 11:07:34;;;;;;;48.88;23.50;;;4.90;99.90;;;;;;5007869;28;20030;-47
2022/12/05 11:10:16;;;;;;;52.30;24.65;;;4.90;99.90;;;;;;5028454;28;20034;-44
2022/12/05 11:12:42;;;;;;;69.82;35.88;;;4.90;99.90;;;;;;5008028;28;20046;-46
2022/12/05 11:15:18;;;;;;;118.78;58.58;;;4.90;99.90;;;;;;5011791;28;20026;-51
2022/12/05 11:17:45;;;;;;;53.10;24.17;;;5.00;99.90;;;;;;5006170;28;20026;-47
2022/12/05 11:20:16;;;;;;;53.45;25.50;;;5.00;99.90;;;;;;5025259;28;20125;-49
2022/12/05 11:22:42;;;;;;;52.05;24.17;;;5.00;99.90;;;;;;5009003;28;20022;-53
2022/12/05 11:25:27;;;;;;;48.70;23.10;;;5.00;99.90;;;;;;5012774;28;20026;-50
2022/12/05 11:27:54;;;;;;;48.17;24.45;;;5.10;99.90;;;;;;5010884;28;20025;-46
2022/12/05 11:30:23;;;;;;;48.20;24.65;;;5.10;99.90;;;;;;5013434;28;20506;-45
2022/12/05 11:32:50;;;;;;;53.88;24.83;;;5.10;99.90;;;;;;5010080;28;20065;-49
2022/12/05 11:35:15;;;;;;;53.60;23.23;;;5.20;99.90;;;;;;4994236;28;20025;-49
2022/12/05 11:37:49;;;;;;;54.63;26.38;;;5.20;99.90;;;;;;4997262;28;20018;-47
2022/12/05 11:40:25;;;;;;;45.15;22.92;;;5.10;99.90;;;;;;4997687;28;20489;-52
2022/12/05 11:43:03;;;;;;;47.20;22.65;;;5.20;99.90;;;;;;4994876;28;20506;-55
2022/12/05 11:45:54;;;;;;;52.65;23.50;;;5.20;99.90;;;;;;4993889;28;20034;-56
2022/12/05 11:48:44;;;;;;;50.40;22.83;;;5.20;99.90;;;;;;4993611;28;20034;-53
2022/12/05 11:51:38;;;;;;;41.30;22.38;;;5.30;99.90;;;;;;4993474;28;20030;-49
2022/12/05 11:54:10;;;;;;;44.38;21.40;;;5.30;99.90;;;;;;4992431;28;20101;-47
2022/12/05 11:56:50;;;;;;;46.28;22.42;;;5.30;99.90;;;;;;4992619;28;20154;-48
2022/12/05 11:59:43;;;;;;;48.65;22.42;;;5.30;99.90;;;;;;4992477;28;20113;-48
2022/12/05 12:02:49;;;;;;;42.20;19.90;;;5.30;99.90;;;;;;4990629;28;20029;-53
2022/12/05 12:05:37;;;;;;;43.17;21.10;;;5.30;99.90;;;;;;5004560;23;20054;-52
2022/12/05 12:08:26;;;;;;;36.53;18.52;;;5.40;99.90;;;;;;4955563;28;20027;-50
2022/12/05 12:11:21;;;;;;;38.88;18.58;;;5.40;99.90;;;;;;4954033;28;20019;-50
2022/12/05 12:14:06;;;;;;;32.28;18.42;;;5.40;99.90;;;;;;4953587;28;20055;-51
2022/12/05 12:17:02;;;;;;;39.35;18.85;;;5.30;99.90;;;;;;4965316;28;20020;-49
2022/12/05 12:19:31;;;;;;;35.45;18.30;;;5.40;99.90;;;;;;4994948;28;20050;-53
2022/12/05 12:22:26;;;;;;;35.85;18.73;;;5.40;99.90;;;;;;4943290;28;20081;-47
2022/12/05 12:25:11;;;;;;;39.25;20.23;;;5.50;99.90;;;;;;4936563;29;20055;-48
2022/12/05 12:27:42;;;;;;;42.67;19.73;;;5.50;99.90;;;;;;4917766;29;20056;-47
2022/12/05 12:30:18;;;;;;;38.67;18.50;;;5.40;99.90;;;;;;4932122;29;20503;-48
2022/12/05 12:33:11;;;;;;;44.22;19.45;;;5.40;99.90;;;;;;4915731;29;20036;-47
2022/12/05 12:35:55;;;;;;;46.55;21.15;;;5.30;99.90;;;;;;4916995;29;20516;-46
2022/12/05 12:38:50;;;;;;;49.33;19.65;;;5.30;99.90;;;;;;4931621;29;20437;-50
2022/12/05 12:41:42;;;;;;;52.63;23.70;;;5.30;99.90;;;;;;4966755;28;20047;-51
2022/12/05 12:44:48;;;;;;;47.17;22.48;;;5.40;99.90;;;;;;4935893;29;20031;-47
2022/12/05 12:47:33;;;;;;;48.63;21.05;;;5.30;99.90;;;;;;4935936;29;20034;-47
2022/12/05 12:50:12;;;;;;;41.73;19.67;;;5.50;99.90;;;;;;4934555;29;20028;-52
2022/12/05 12:52:44;;;;;;;39.50;19.48;;;5.40;99.90;;;;;;4933692;29;20508;-50
2022/12/05 12:55:42;;;;;;;39.85;19.20;;;5.40;99.90;;;;;;4934165;29;20035;-47
2022/12/05 12:58:49;;;;;;;51.70;22.40;;;5.40;99.90;;;;;;4934311;29;20028;-47
2022/12/05 13:01:14;;;;;;;;;;;5.50;99.90;;;;;;4935004;29;20023;-47
2022/12/05 13:03:50;;;;;;;47.45;21.60;;;5.40;99.90;;;;;;4933508;29;19931;-46